X  Close Metar Aviation Weather Data     KBWI Baltimore/Washington International Thurgood Marshall Airport
Temperature
93°F Temperature
61°F Dewpoint
34% Humidity



Wind
6 MPH
10 KM/H
3 M/S
5 KTS



Calm
North
Current Conditions

Mostly Scattered Clouds Mostly Scattered Clouds
Pressure 1014.52 (hPa) - 29.96 (inHg)
Visibility 8.7 (mile) - 14 (km)
Airport
Airport-code KBWI

Location: Baltimore/Washington International Thurgood Marshall Airport
Distance: 6 (mi)

Metar:
KBWI 271754Z VRB05KT 9SM SCT060 34/16 A2996 RMK AO2 SLP144 T03440156 10356 20244 58006

Time: 27-07-2021 13:54 EDT